Time;durP1;ratioP1;P1;durP2;ratioP2;P2;SDS_P1;SDS_P2;PMS_P1;PMS_P2;Temp;Humidity;BMP_temperature;BMP_pressure;BME280_temperature;BME280_humidity;BME280_pressure;Samples;Min_cycle;Max_cycle;Signal;HPM_P1;HPM_P2
2024/02/29 00:00:21;;;;;;;;;;;13.30;53.60;;;;;;5060357;28;19936;-62
2024/02/29 00:02:49;;;;;;;;;;;13.30;53.60;;;;;;5068391;28;20019;-61
2024/02/29 00:05:18;;;;;;;;;;;13.30;53.60;;;;;;5077225;28;19945;-60
2024/02/29 00:07:46;;;;;;;;;;;13.30;53.60;;;;;;5067492;28;20179;-60
2024/02/29 00:10:14;;;;;;;;;;;13.30;53.60;;;;;;5070457;28;19935;-60
2024/02/29 00:12:44;;;;;;;;;;;13.30;53.60;;;;;;5062072;28;20028;-60
2024/02/29 00:15:12;;;;;;;;;;;13.30;53.60;;;;;;5058356;28;19929;-60
2024/02/29 00:17:40;;;;;;;;;;;13.30;53.60;;;;;;5067753;28;20421;-61
2024/02/29 00:20:10;;;;;;;;;;;13.30;53.50;;;;;;5069713;28;20406;-62
2024/02/29 00:22:39;;;;;;;;;;;13.30;53.50;;;;;;5062872;28;20579;-63
2024/02/29 00:25:07;;;;;;;;;;;13.40;53.60;;;;;;5060106;28;19929;-61
2024/02/29 00:27:36;;;;;;;;;;;13.40;53.60;;;;;;5069993;28;20353;-59
2024/02/29 00:30:07;;;;;;;;;;;13.30;53.50;;;;;;5063308;28;19968;-59
2024/02/29 00:32:35;;;;;;;;;;;13.30;53.50;;;;;;5061603;28;19928;-62
2024/02/29 00:35:04;;;;;;;;;;;13.30;53.50;;;;;;5070718;28;20011;-60
2024/02/29 00:37:33;;;;;;;;;;;13.30;53.50;;;;;;5055595;28;19935;-62
2024/02/29 00:40:02;;;;;;;;;;;13.30;53.50;;;;;;5061046;28;20342;-61
2024/02/29 00:42:30;;;;;;;;;;;13.30;53.60;;;;;;5058908;28;19924;-61
2024/02/29 00:44:58;;;;;;;;;;;13.30;53.50;;;;;;5064986;28;19971;-61
2024/02/29 00:47:27;;;;;;;;;;;13.30;53.50;;;;;;5056637;28;20255;-60
2024/02/29 00:49:55;;;;;;;;;;;13.30;53.50;;;;;;5063371;28;20017;-60
2024/02/29 00:52:24;;;;;;;;;;;13.30;53.50;;;;;;5060234;28;19937;-59
2024/02/29 00:54:52;;;;;;;;;;;13.30;53.50;;;;;;5066519;28;20039;-60
2024/02/29 00:57:20;;;;;;;;;;;13.30;53.50;;;;;;5053342;28;19935;-61
2024/02/29 00:59:48;;;;;;;;;;;13.30;53.50;;;;;;5059677;28;19928;-62
2024/02/29 01:02:16;;;;;;;;;;;13.30;53.50;;;;;;5061541;28;20044;-60
2024/02/29 01:04:45;;;;;;;;;;;13.20;53.40;;;;;;5069110;28;19933;-60
2024/02/29 01:07:13;;;;;;;;;;;13.20;53.50;;;;;;5068677;28;19949;-60
2024/02/29 01:09:41;;;;;;;;;;;13.20;53.50;;;;;;5067408;28;20024;-60
2024/02/29 01:12:09;;;;;;;;;;;13.20;53.60;;;;;;5071902;28;19924;-62
2024/02/29 01:14:37;;;;;;;;;;;13.20;53.60;;;;;;5064692;28;20338;-60
2024/02/29 01:17:06;;;;;;;;;;;13.20;53.60;;;;;;5062779;28;19943;-61
2024/02/29 01:19:34;;;;;;;;;;;13.30;53.60;;;;;;5067888;28;20397;-61
2024/02/29 01:22:04;;;;;;;;;;;13.30;53.50;;;;;;5066554;28;20112;-61
2024/02/29 01:24:32;;;;;;;;;;;13.20;53.50;;;;;;5061786;28;20007;-61
2024/02/29 01:27:00;;;;;;;;;;;13.20;53.50;;;;;;5070650;28;20333;-60
2024/02/29 01:29:28;;;;;;;;;;;13.20;53.50;;;;;;5064945;28;20007;-60
2024/02/29 01:31:56;;;;;;;;;;;13.20;53.60;;;;;;5076143;28;19928;-61
2024/02/29 01:34:24;;;;;;;;;;;13.20;53.60;;;;;;5084295;28;20370;-59
2024/02/29 01:36:52;;;;;;;;;;;13.20;53.60;;;;;;5094216;28;19963;-64
2024/02/29 01:39:22;;;;;;;;;;;13.20;53.80;;;;;;5079247;28;20602;-62
2024/02/29 01:41:50;;;;;;;;;;;13.20;53.60;;;;;;5097194;28;20381;-61
2024/02/29 01:44:18;;;;;;;;;;;13.20;53.60;;;;;;5085533;28;19928;-60
2024/02/29 01:46:46;;;;;;;;;;;13.20;53.60;;;;;;5093216;28;19928;-60
2024/02/29 01:49:16;;;;;;;;;;;13.30;53.60;;;;;;5075712;28;19950;-62
2024/02/29 01:51:45;;;;;;;;;;;13.20;54.10;;;;;;5086042;28;20023;-61
2024/02/29 01:54:13;;;;;;;;;;;13.20;53.60;;;;;;5074345;28;20429;-63
2024/02/29 01:56:43;;;;;;;;;;;13.20;53.60;;;;;;5084881;28;19928;-61
2024/02/29 01:59:11;;;;;;;;;;;13.20;53.70;;;;;;5084777;28;19928;-59
2024/02/29 02:01:39;;;;;;;;;;;13.20;53.80;;;;;;5086516;28;19927;-60
2024/02/29 02:04:07;;;;;;;;;;;13.20;53.70;;;;;;5081484;28;20721;-60
2024/02/29 02:06:36;;;;;;;;;;;13.20;53.80;;;;;;5074725;28;19956;-59
2024/02/29 02:09:04;;;;;;;;;;;13.20;53.80;;;;;;5086214;28;19932;-59
2024/02/29 02:11:32;;;;;;;;;;;13.20;53.80;;;;;;5078862;28;19932;-61
2024/02/29 02:14:02;;;;;;;;;;;13.20;53.80;;;;;;5086079;28;19924;-60
2024/02/29 02:16:30;;;;;;;;;;;13.20;53.70;;;;;;5079761;28;19969;-59
2024/02/29 02:18:58;;;;;;;;;;;13.20;53.70;;;;;;5085069;28;19935;-60
2024/02/29 02:21:28;;;;;;;;;;;13.20;53.60;;;;;;5087326;27;20389;-60
2024/02/29 02:23:56;;;;;;;;;;;13.20;53.60;;;;;;5084264;28;20401;-60
2024/02/29 02:26:24;;;;;;;;;;;13.20;53.60;;;;;;5082299;28;19978;-60
2024/02/29 02:28:52;;;;;;;;;;;13.20;53.70;;;;;;5089732;28;19928;-60
2024/02/29 02:31:20;;;;;;;;;;;13.20;53.70;;;;;;5083400;28;19927;-60
2024/02/29 02:33:48;;;;;;;;;;;13.20;53.70;;;;;;5079221;28;19954;-59
2024/02/29 02:36:16;;;;;;;;;;;13.20;53.70;;;;;;5087294;28;19989;-60
2024/02/29 02:38:46;;;;;;;;;;;13.20;53.70;;;;;;5071991;28;19928;-60
2024/02/29 02:41:14;;;;;;;;;;;13.20;53.80;;;;;;5061259;28;20018;-60
2024/02/29 02:43:44;;;;;;;;;;;13.20;53.70;;;;;;5081060;28;19927;-59
2024/02/29 02:46:12;;;;;;;;;;;13.20;53.70;;;;;;5079017;28;20618;-59
2024/02/29 02:48:40;;;;;;;;;;;13.20;53.70;;;;;;5085782;28;19935;-60
2024/02/29 02:51:08;;;;;;;;;;;13.20;53.70;;;;;;5078350;28;20012;-60
2024/02/29 02:53:37;;;;;;;;;;;13.20;53.70;;;;;;5072075;28;19935;-60
2024/02/29 02:56:06;;;;;;;;;;;13.20;53.80;;;;;;5066431;28;19947;-60
2024/02/29 02:58:35;;;;;;;;;;;13.20;54.10;;;;;;5083978;28;19939;-60
2024/02/29 03:01:03;;;;;;;;;;;13.20;53.70;;;;;;5085901;28;20334;-59
2024/02/29 03:03:32;;;;;;;;;;;13.20;53.70;;;;;;5078032;28;19936;-59
2024/02/29 03:06:00;;;;;;;;;;;13.20;53.70;;;;;;5082014;28;20009;-60
2024/02/29 03:08:28;;;;;;;;;;;13.20;53.80;;;;;;5085835;28;19950;-59
2024/02/29 03:10:57;;;;;;;;;;;13.20;53.80;;;;;;5087764;28;19973;-59
2024/02/29 03:13:26;;;;;;;;;;;13.20;54.00;;;;;;5075789;28;19982;-62
2024/02/29 03:15:54;;;;;;;;;;;13.20;53.80;;;;;;5079630;27;19932;-62
2024/02/29 03:18:22;;;;;;;;;;;13.20;53.80;;;;;;5086690;28;19927;-61
2024/02/29 03:20:50;;;;;;;;;;;13.20;53.80;;;;;;5091228;27;19934;-61
2024/02/29 03:23:19;;;;;;;;;;;13.20;53.80;;;;;;5077516;28;20396;-60
2024/02/29 03:25:47;;;;;;;;;;;13.20;53.80;;;;;;5088907;28;20394;-60
2024/02/29 03:28:15;;;;;;;;;;;13.20;53.70;;;;;;5091540;28;19924;-62
2024/02/29 03:30:45;;;;;;;;;;;13.20;53.80;;;;;;5077481;27;20027;-59
2024/02/29 03:33:13;;;;;;;;;;;13.20;53.80;;;;;;5065227;28;19931;-58
2024/02/29 03:35:41;;;;;;;;;;;13.20;53.80;;;;;;5084529;28;19935;-60
2024/02/29 03:38:11;;;;;;;;;;;13.20;53.80;;;;;;5084426;28;19932;-60
2024/02/29 03:40:39;;;;;;;;;;;13.30;53.80;;;;;;5079126;28;20505;-59
2024/02/29 03:43:07;;;;;;;;;;;13.30;53.80;;;;;;5080853;28;19934;-60
2024/02/29 03:45:35;;;;;;;;;;;13.30;53.80;;;;;;5083702;28;19928;-59
2024/02/29 03:48:05;;;;;;;;;;;13.30;53.80;;;;;;5086439;28;19939;-60
2024/02/29 03:50:33;;;;;;;;;;;13.30;53.80;;;;;;5091846;28;19925;-59
2024/02/29 03:53:01;;;;;;;;;;;13.20;53.70;;;;;;5079741;28;19963;-60
2024/02/29 03:55:29;;;;;;;;;;;13.20;53.70;;;;;;5082301;28;20417;-60
2024/02/29 03:57:57;;;;;;;;;;;13.20;53.70;;;;;;5082827;28;19951;-59
2024/02/29 04:00:26;;;;;;;;;;;13.20;53.70;;;;;;5084863;28;19928;-60
2024/02/29 04:02:54;;;;;;;;;;;13.20;53.80;;;;;;5081907;28;20599;-61
2024/02/29 04:05:24;;;;;;;;;;;13.20;53.80;;;;;;5074504;28;19933;-60
2024/02/29 04:07:56;;;;;;;;;;;13.20;53.80;;;;;;5066470;28;19992;-61
2024/02/29 04:10:24;;;;;;;;;;;13.20;54.10;;;;;;5088055;28;19936;-60
2024/02/29 04:12:52;;;;;;;;;;;13.20;53.90;;;;;;5072970;28;19943;-61
2024/02/29 04:15:20;;;;;;;;;;;13.30;53.90;;;;;;5074837;28;20290;-62
2024/02/29 04:17:48;;;;;;;;;;;13.20;53.80;;;;;;5066953;28;19935;-61
2024/02/29 04:20:17;;;;;;;;;;;13.30;53.80;;;;;;5081989;28;19931;-60
2024/02/29 04:22:46;;;;;;;;;;;13.20;53.70;;;;;;5083750;28;19997;-60
2024/02/29 04:25:16;;;;;;;;;;;13.20;53.70;;;;;;5076550;28;19938;-60
2024/02/29 04:27:44;;;;;;;;;;;13.20;53.80;;;;;;5082027;28;19946;-59
2024/02/29 04:30:12;;;;;;;;;;;13.20;53.70;;;;;;5085784;28;20026;-59
2024/02/29 04:32:40;;;;;;;;;;;13.20;53.70;;;;;;5081955;28;19934;-60
2024/02/29 04:35:10;;;;;;;;;;;13.20;53.70;;;;;;5079817;28;19939;-58
2024/02/29 04:37:38;;;;;;;;;;;13.20;53.80;;;;;;5084284;28;19935;-60
2024/02/29 04:40:10;;;;;;;;;;;13.20;53.80;;;;;;5081810;28;19928;-60
2024/02/29 04:42:39;;;;;;;;;;;13.20;53.80;;;;;;5085715;28;20701;-60
2024/02/29 04:45:07;;;;;;;;;;;13.20;53.80;;;;;;5077669;28;19935;-60
2024/02/29 04:47:35;;;;;;;;;;;13.20;53.80;;;;;;5081415;28;19982;-60
2024/02/29 04:50:04;;;;;;;;;;;13.20;54.20;;;;;;5088978;28;20363;-61
2024/02/29 04:52:32;;;;;;;;;;;13.10;53.70;;;;;;5080247;28;19967;-60
2024/02/29 04:55:00;;;;;;;;;;;13.10;53.90;;;;;;5082666;28;20283;-60
2024/02/29 04:57:30;;;;;;;;;;;13.10;54.00;;;;;;5077655;28;20752;-60
2024/02/29 04:59:58;;;;;;;;;;;13.10;53.80;;;;;;5085851;28;19927;-60
2024/02/29 05:02:26;;;;;;;;;;;13.10;53.80;;;;;;5084735;28;20034;-61
2024/02/29 05:04:55;;;;;;;;;;;13.10;53.80;;;;;;5083120;28;19932;-59
2024/02/29 05:07:23;;;;;;;;;;;13.00;53.80;;;;;;5076444;28;19931;-60
2024/02/29 05:09:51;;;;;;;;;;;13.00;53.90;;;;;;5080021;28;19928;-59
2024/02/29 05:12:22;;;;;;;;;;;13.00;53.90;;;;;;5090919;28;19928;-59
2024/02/29 05:14:51;;;;;;;;;;;13.00;53.90;;;;;;5077596;28;20003;-60
2024/02/29 05:17:19;;;;;;;;;;;13.00;53.80;;;;;;5073992;28;20464;-59
2024/02/29 05:19:48;;;;;;;;;;;13.00;53.90;;;;;;5082326;28;19935;-59
2024/02/29 05:22:16;;;;;;;;;;;13.00;53.90;;;;;;5086175;28;20027;-59
2024/02/29 05:24:44;;;;;;;;;;;13.00;53.90;;;;;;5081878;28;19950;-60
2024/02/29 05:27:12;;;;;;;;;;;13.00;53.90;;;;;;5072431;28;19932;-59
2024/02/29 05:29:40;;;;;;;;;;;13.00;53.90;;;;;;5081490;28;20058;-60
2024/02/29 05:32:10;;;;;;;;;;;13.00;53.90;;;;;;5086030;28;19939;-61
2024/02/29 05:34:38;;;;;;;;;;;13.00;53.90;;;;;;5082226;28;19934;-59
2024/02/29 05:37:07;;;;;;;;;;;13.00;53.90;;;;;;5084456;28;19935;-46
2024/02/29 05:39:35;;;;;;;;;;;13.00;54.00;;;;;;5080322;28;19928;-54
2024/02/29 05:42:03;;;;;;;;;;;13.10;54.30;;;;;;5079684;28;19928;-53
2024/02/29 05:44:31;;;;;;;;;;;13.30;54.20;;;;;;5073997;28;19924;-57
2024/02/29 05:46:59;;;;;;;;;;;13.40;54.20;;;;;;5084947;28;20420;-56
2024/02/29 05:49:29;;;;;;;;;;;13.50;54.00;;;;;;5077496;28;20483;-57
2024/02/29 05:51:57;;;;;;;;;;;13.50;53.90;;;;;;5087603;28;20018;-53
2024/02/29 05:54:25;;;;;;;;;;;13.50;53.90;;;;;;5083256;28;19934;-54
2024/02/29 05:56:54;;;;;;;;;;;13.50;53.80;;;;;;5085275;28;20013;-57
2024/02/29 05:59:22;;;;;;;;;;;13.50;53.90;;;;;;5079676;28;19924;-55
2024/02/29 06:01:50;;;;;;;;;;;13.50;53.90;;;;;;5084708;28;19931;-56
2024/02/29 06:04:18;;;;;;;;;;;13.50;53.80;;;;;;5085921;28;19959;-58
2024/02/29 06:06:48;;;;;;;;;;;13.50;53.80;;;;;;5083800;28;20024;-56
2024/02/29 06:09:17;;;;;;;;;;;13.40;53.80;;;;;;5077928;28;19935;-56
2024/02/29 06:11:45;;;;;;;;;;;13.40;53.80;;;;;;5086582;28;20147;-56
2024/02/29 06:14:13;;;;;;;;;;;13.40;53.80;;;;;;5079737;28;19932;-58
2024/02/29 06:16:41;;;;;;;;;;;13.40;53.80;;;;;;5076888;28;20397;-56
2024/02/29 06:19:09;;;;;;;;;;;13.40;53.80;;;;;;5080131;28;19928;-55
2024/02/29 06:21:37;;;;;;;;;;;13.40;53.80;;;;;;5092859;27;19927;-55
2024/02/29 06:24:07;;;;;;;;;;;13.40;53.80;;;;;;5068485;28;19928;-62
2024/02/29 06:26:35;;;;;;;;;;;13.40;53.90;;;;;;5084064;28;19928;-56
2024/02/29 06:29:03;;;;;;;;;;;13.40;53.80;;;;;;5079353;28;20291;-55
2024/02/29 06:31:32;;;;;;;;;;;13.40;53.80;;;;;;5077437;28;20023;-57
2024/02/29 06:34:00;;;;;;;;;;;13.40;53.80;;;;;;5083114;28;20390;-56
2024/02/29 06:36:28;;;;;;;;;;;13.40;53.80;;;;;;5083671;28;19959;-58
2024/02/29 06:38:56;;;;;;;;;;;13.40;53.80;;;;;;5081014;28;19932;-58
2024/02/29 06:41:26;;;;;;;;;;;13.40;53.80;;;;;;5072459;28;19928;-56
2024/02/29 06:43:56;;;;;;;;;;;13.50;53.90;;;;;;5083579;28;19932;-57
2024/02/29 06:46:24;;;;;;;;;;;13.50;53.90;;;;;;5075215;28;20458;-58
2024/02/29 06:48:52;;;;;;;;;;;13.60;53.90;;;;;;5078816;28;19939;-55
2024/02/29 06:51:20;;;;;;;;;;;13.60;53.90;;;;;;5071631;28;19993;-58
2024/02/29 06:53:48;;;;;;;;;;;13.60;53.80;;;;;;5080271;28;20144;-57
2024/02/29 06:56:16;;;;;;;;;;;13.70;53.80;;;;;;5084725;28;20394;-56
2024/02/29 06:58:45;;;;;;;;;;;13.70;53.80;;;;;;5079621;28;19928;-57
2024/02/29 07:01:14;;;;;;;;;;;13.80;53.80;;;;;;5074100;27;19928;-59
2024/02/29 07:03:42;;;;;;;;;;;13.80;53.80;;;;;;5084046;28;20029;-53
2024/02/29 07:06:10;;;;;;;;;;;13.90;53.90;;;;;;5079458;28;19932;-41
2024/02/29 07:08:38;;;;;;;;;;;14.00;53.90;;;;;;5081870;28;19939;-42
2024/02/29 07:11:11;;;;;;;;;;;14.20;54.20;;;;;;5076965;28;19934;-52
2024/02/29 07:13:40;;;;;;;;;;;14.40;54.00;;;;;;5036012;28;19931;-51
2024/02/29 07:16:09;;;;;;;;;;;14.50;53.70;;;;;;5030228;28;20035;-57
2024/02/29 07:18:38;;;;;;;;;;;14.60;53.70;;;;;;5077196;28;20027;-58
2024/02/29 07:21:07;;;;;;;;;;;14.60;53.50;;;;;;5087992;27;19927;-57
2024/02/29 07:23:36;;;;;;;;;;;14.60;53.60;;;;;;5071281;27;19943;-61
2024/02/29 07:26:04;;;;;;;;;;;14.60;53.50;;;;;;5086872;28;19927;-58
2024/02/29 07:28:32;;;;;;;;;;;14.60;53.50;;;;;;5074816;28;19943;-59
2024/02/29 07:31:01;;;;;;;;;;;14.70;53.50;;;;;;5071471;28;19932;-56
2024/02/29 07:33:33;;;;;;;;;;;14.70;53.80;;;;;;5059471;27;20578;-59
2024/02/29 07:36:01;;;;;;;;;;;14.70;53.50;;;;;;5069896;28;19963;-58
2024/02/29 07:38:29;;;;;;;;;;;14.80;53.50;;;;;;5072549;28;20006;-55
2024/02/29 07:40:57;;;;;;;;;;;14.90;53.50;;;;;;5072859;28;20016;-56
2024/02/29 07:43:28;;;;;;;;;;;14.90;53.50;;;;;;5056104;27;19928;-53
2024/02/29 07:45:56;;;;;;;;;;;15.00;53.50;;;;;;5072672;28;19935;-55
2024/02/29 07:48:26;;;;;;;;;;;15.00;53.50;;;;;;5074057;28;20034;-56
2024/02/29 07:50:56;;;;;;;;;;;15.10;53.40;;;;;;5069700;28;20017;-58
2024/02/29 07:53:24;;;;;;;;;;;15.20;53.50;;;;;;5057930;27;20035;-53
2024/02/29 07:55:52;;;;;;;;;;;15.30;54.10;;;;;;5072245;28;20310;-55
2024/02/29 07:58:20;;;;;;;;;;;15.40;53.30;;;;;;5066303;28;20000;-59
2024/02/29 08:00:48;;;;;;;;;;;15.40;53.80;;;;;;5071845;28;19959;-53
2024/02/29 08:03:17;;;;;;;;;;;15.40;53.10;;;;;;5058632;28;19938;-57
2024/02/29 08:05:47;;;;;;;;;;;15.30;53.60;;;;;;5071667;28;19928;-56
2024/02/29 08:08:16;;;;;;;;;;;15.30;53.30;;;;;;5070841;28;19928;-53
2024/02/29 08:10:44;;;;;;;;;;;15.30;53.40;;;;;;5067374;27;20349;-51
2024/02/29 08:13:12;;;;;;;;;;;15.50;53.50;;;;;;5050253;27;19939;-55
2024/02/29 08:15:41;;;;;;;;;;;15.70;53.80;;;;;;5062431;28;19993;-53
2024/02/29 08:18:10;;;;;;;;;;;15.80;53.40;;;;;;5073830;28;19966;-54
2024/02/29 08:20:39;;;;;;;;;;;16.00;53.30;;;;;;5077678;27;21407;-57
2024/02/29 08:23:07;;;;;;;;;;;16.20;53.30;;;;;;5072224;27;19927;-52
2024/02/29 08:25:36;;;;;;;;;;;16.40;53.10;;;;;;5067679;28;19959;-52
2024/02/29 08:28:05;;;;;;;;;;;16.40;53.00;;;;;;5074935;28;21032;-55
2024/02/29 08:30:33;;;;;;;;;;;16.50;53.10;;;;;;5072621;28;19942;-51
2024/02/29 08:33:01;;;;;;;;;;;16.60;53.00;;;;;;5066019;28;19939;-53
2024/02/29 08:35:30;;;;;;;;;;;16.80;53.10;;;;;;5066311;27;20648;-55
2024/02/29 08:37:58;;;;;;;;;;;17.10;53.10;;;;;;5066101;28;20637;-52
2024/02/29 08:40:26;;;;;;;;;;;17.40;53.00;;;;;;5073252;28;19959;-53
2024/02/29 08:42:55;;;;;;;;;;;17.60;52.80;;;;;;5067281;28;19938;-53
2024/02/29 08:45:24;;;;;;;;;;;17.80;52.70;;;;;;5064013;28;20012;-51
2024/02/29 08:47:52;;;;;;;;;;;18.10;52.70;;;;;;5070707;28;20027;-53
2024/02/29 08:50:20;;;;;;;;;;;18.30;52.60;;;;;;5070288;27;20921;-55
2024/02/29 08:52:48;;;;;;;;;;;18.70;52.50;;;;;;5056260;28;20704;-55
2024/02/29 08:55:17;;;;;;;;;;;18.90;52.30;;;;;;5061984;28;19928;-52
2024/02/29 08:57:45;;;;;;;;;;;19.10;52.20;;;;;;5055308;28;19932;-54
2024/02/29 09:00:16;;;;;;;;;;;19.20;51.80;;;;;;5068129;28;19939;-54
2024/02/29 09:02:45;;;;;;;;;;;19.30;51.60;;;;;;5067548;28;19938;-53
2024/02/29 09:05:15;;;;;;;;;;;19.40;51.90;;;;;;5065047;28;19932;-54
2024/02/29 09:07:43;;;;;;;;;;;19.50;51.60;;;;;;5071118;28;19935;-51
2024/02/29 09:10:12;;;;;;;;;;;19.50;51.50;;;;;;5071130;28;19934;-56
2024/02/29 09:12:40;;;;;;;;;;;19.70;51.80;;;;;;5063302;28;20039;-57
2024/02/29 09:15:09;;;;;;;;;;;20.00;52.00;;;;;;5064538;28;19928;-49
2024/02/29 09:17:39;;;;;;;;;;;20.50;51.90;;;;;;5067475;28;19939;-50
2024/02/29 09:20:10;;;;;;;;;;;21.20;52.00;;;;;;5070873;28;19928;-51
2024/02/29 09:22:38;;;;;;;;;;;22.20;51.90;;;;;;5066438;28;19932;-55
2024/02/29 09:25:07;;;;;;;;;;;23.20;50.80;;;;;;5071768;28;20000;-52
2024/02/29 09:27:35;;;;;;;;;;;23.90;49.80;;;;;;5073097;27;19946;-57
2024/02/29 09:30:04;;;;;;;;;;;24.30;48.80;;;;;;5074911;28;20578;-53
2024/02/29 09:32:32;;;;;;;;;;;24.20;48.00;;;;;;5071714;27;19942;-50
2024/02/29 09:35:03;;;;;;;;;;;24.00;48.10;;;;;;5073351;28;19928;-55
2024/02/29 09:37:31;;;;;;;;;;;23.70;47.50;;;;;;5064082;27;19932;-54
2024/02/29 09:39:59;;;;;;;;;;;23.20;47.40;;;;;;5073194;28;20006;-54
2024/02/29 09:42:32;;;;;;;;;;;23.00;48.10;;;;;;5063268;28;20345;-55
2024/02/29 09:45:00;;;;;;;;;;;22.90;47.90;;;;;;5061924;28;19923;-53
2024/02/29 09:47:28;;;;;;;;;;;22.70;48.10;;;;;;5062835;28;20987;-51
2024/02/29 09:49:59;;;;;;;;;;;22.40;48.10;;;;;;5077022;28;19932;-51
2024/02/29 09:52:35;;;;;;;;;;;22.20;48.60;;;;;;5078050;27;20015;-51
2024/02/29 09:55:05;;;;;;;;;;;22.00;48.80;;;;;;5086211;28;19938;-56
2024/02/29 09:57:33;;;;;;;;;;;22.00;49.50;;;;;;5068248;28;20664;-53
2024/02/29 10:00:02;;;;;;;;;;;22.10;49.20;;;;;;5088942;28;20026;-52
2024/02/29 10:02:36;;;;;;;;;;;22.10;49.50;;;;;;5079558;28;20396;-53
2024/02/29 10:05:08;;;;;;;;;;;22.50;49.90;;;;;;5086912;28;19936;-53
2024/02/29 10:07:45;;;;;;;;;;;23.10;50.00;;;;;;5073982;28;21663;-50
2024/02/29 10:10:13;;;;;;;;;;;24.00;49.60;;;;;;5085859;28;19955;-54
2024/02/29 10:12:43;;;;;;;;;;;24.90;48.70;;;;;;5071229;28;20489;-54
2024/02/29 10:15:11;;;;;;;;;;;25.50;47.60;;;;;;5060807;28;19947;-52
2024/02/29 10:17:40;;;;;;;;;;;26.00;47.20;;;;;;5071288;28;19954;-53
2024/02/29 10:20:08;;;;;;;;;;;26.30;47.00;;;;;;5071819;28;19928;-52
2024/02/29 10:22:37;;;;;;;;;;;26.70;46.90;;;;;;5070563;28;20371;-54
2024/02/29 10:25:12;;;;;;;;;;;27.30;46.70;;;;;;5065122;28;20413;-50
2024/02/29 10:27:41;;;;;;;;;;;27.70;46.00;;;;;;5072407;28;19971;-55
2024/02/29 10:30:10;;;;;;;;;;;28.00;45.70;;;;;;5072247;27;19928;-58
2024/02/29 10:32:38;;;;;;;;;;;28.40;45.70;;;;;;5072695;28;19939;-57
2024/02/29 10:35:19;;;;;;;;;;;28.80;45.50;;;;;;5065754;27;20660;-61
2024/02/29 10:37:47;;;;;;;;;;;29.10;45.40;;;;;;5073818;28;20489;-54
2024/02/29 10:40:17;;;;;;;;;;;29.50;45.10;;;;;;5070206;27;19989;-53
2024/02/29 10:42:50;;;;;;;;;;;29.60;44.20;;;;;;5077282;28;19924;-56
2024/02/29 10:45:19;;;;;;;;;;;29.40;44.10;;;;;;5058740;28;19950;-57
2024/02/29 10:47:53;;;;;;;;;;;29.30;44.30;;;;;;5071813;28;19932;-59
2024/02/29 10:50:24;;;;;;;;;;;29.40;44.70;;;;;;5050770;28;20042;-56
2024/02/29 10:52:58;;;;;;;;;;;29.70;44.60;;;;;;5079013;28;19939;-54
2024/02/29 10:55:28;;;;;;;;;;;29.90;44.30;;;;;;5076997;27;20379;-58
2024/02/29 10:57:58;;;;;;;;;;;30.00;44.00;;;;;;5077659;28;20496;-54
2024/02/29 11:00:27;;;;;;;;;;;30.00;43.60;;;;;;5074233;28;19974;-56
2024/02/29 11:02:56;;;;;;;;;;;29.90;43.60;;;;;;5084137;28;19924;-57
2024/02/29 11:05:25;;;;;;;;;;;29.60;43.30;;;;;;5074955;28;19938;-53
2024/02/29 11:07:54;;;;;;;;;;;29.20;43.60;;;;;;5065403;28;19927;-56
2024/02/29 11:10:23;;;;;;;;;;;28.90;43.70;;;;;;5081186;28;19932;-54
2024/02/29 11:12:58;;;;;;;;;;;28.40;43.60;;;;;;5079678;28;19928;-56
2024/02/29 11:15:26;;;;;;;;;;;27.80;43.40;;;;;;5073465;28;20395;-57
2024/02/29 11:17:54;;;;;;;;;;;27.20;44.10;;;;;;5085154;28;19942;-53
2024/02/29 11:20:23;;;;;;;;;;;26.60;44.50;;;;;;5075431;27;19971;-52
2024/02/29 11:23:02;;;;;;;;;;;25.80;44.70;;;;;;5079266;27;20019;-55
2024/02/29 11:25:42;;;;;;;;;;;25.20;45.70;;;;;;5074006;28;19927;-53
2024/02/29 11:28:11;;;;;;;;;;;24.50;46.40;;;;;;5080497;28;19977;-55
2024/02/29 11:30:41;;;;;;;;;;;23.90;46.80;;;;;;5077328;28;20444;-55
2024/02/29 11:33:09;;;;;;;;;;;23.30;47.60;;;;;;5079488;28;19931;-55
2024/02/29 11:35:38;;;;;;;;;;;22.80;47.90;;;;;;5076831;27;19932;-55
2024/02/29 11:38:07;;;;;;;;;;;22.30;48.40;;;;;;5077900;27;20022;-54
2024/02/29 11:40:36;;;;;;;;;;;21.90;48.80;;;;;;5079080;28;19923;-55
2024/02/29 11:43:07;;;;;;;;;;;21.50;49.00;;;;;;5083524;28;19934;-59
2024/02/29 11:45:37;;;;;;;;;;;21.10;49.30;;;;;;5075174;28;19936;-58
2024/02/29 11:48:06;;;;;;;;;;;20.80;49.80;;;;;;5089401;27;19928;-61
2024/02/29 11:50:34;;;;;;;;;;;20.50;50.00;;;;;;5083249;28;19935;-59
2024/02/29 11:53:02;;;;;;;;;;;20.30;50.90;;;;;;5081350;27;20352;-57
2024/02/29 11:55:30;;;;;;;;;;;20.10;50.30;;;;;;5074851;28;19931;-59
2024/02/29 11:58:00;;;;;;;;;;;19.90;50.80;;;;;;5084049;28;19928;-59
2024/02/29 12:00:28;;;;;;;;;;;19.70;50.60;;;;;;5086733;28;19961;-59
2024/02/29 12:02:59;;;;;;;;;;;19.60;51.10;;;;;;5089081;28;20310;-57
2024/02/29 12:05:27;;;;;;;;;;;19.50;51.10;;;;;;5079052;28;19931;-55
2024/02/29 12:07:55;;;;;;;;;;;19.40;51.10;;;;;;5080285;28;19998;-58
2024/02/29 12:10:24;;;;;;;;;;;19.40;51.40;;;;;;5084824;28;19935;-56
2024/02/29 12:12:52;;;;;;;;;;;19.40;51.30;;;;;;5079480;28;19954;-55
2024/02/29 12:15:21;;;;;;;;;;;19.40;51.30;;;;;;5078659;28;19924;-55
2024/02/29 12:17:49;;;;;;;;;;;19.40;51.40;;;;;;5084518;28;19950;-56
2024/02/29 12:20:19;;;;;;;;;;;19.40;51.30;;;;;;5081661;28;20028;-58
2024/02/29 12:22:56;;;;;;;;;;;19.40;51.40;;;;;;5082659;28;19927;-56
2024/02/29 12:25:26;;;;;;;;;;;19.40;51.40;;;;;;5074935;28;20210;-56
2024/02/29 12:27:55;;;;;;;;;;;19.50;51.40;;;;;;5083117;28;19930;-55
2024/02/29 12:30:23;;;;;;;;;;;19.50;51.40;;;;;;5082101;28;19951;-56
2024/02/29 12:32:52;;;;;;;;;;;19.50;51.50;;;;;;5087699;28;20015;-56
2024/02/29 12:35:27;;;;;;;;;;;19.60;51.40;;;;;;5067015;28;19931;-52
2024/02/29 12:37:56;;;;;;;;;;;19.60;51.30;;;;;;5083743;28;19927;-54
2024/02/29 12:40:25;;;;;;;;;;;19.60;51.30;;;;;;5070008;28;20015;-52
2024/02/29 12:42:54;;;;;;;;;;;19.50;51.90;;;;;;5086911;28;19959;-56
2024/02/29 12:45:22;;;;;;;;;;;19.50;51.30;;;;;;5070180;28;19932;-57
2024/02/29 12:47:50;;;;;;;;;;;19.60;51.30;;;;;;5077259;28;20004;-57
2024/02/29 12:50:20;;;;;;;;;;;19.60;51.30;;;;;;5085732;28;19974;-58
2024/02/29 12:52:54;;;;;;;;;;;19.60;51.30;;;;;;5078414;28;19928;-56
2024/02/29 12:55:22;;;;;;;;;;;19.60;51.30;;;;;;5067795;28;19940;-55
2024/02/29 12:57:51;;;;;;;;;;;19.70;51.40;;;;;;5077047;28;19931;-58
2024/02/29 13:00:20;;;;;;;;;;;19.70;51.20;;;;;;5088158;28;20317;-54
2024/02/29 13:02:49;;;;;;;;;;;19.60;50.90;;;;;;5079099;28;20017;-54
2024/02/29 13:05:17;;;;;;;;;;;19.60;50.90;;;;;;5070502;28;19924;-56
2024/02/29 13:07:46;;;;;;;;;;;19.60;51.20;;;;;;5086078;28;21327;-57
2024/02/29 13:10:15;;;;;;;;;;;19.70;51.30;;;;;;5077944;28;19928;-54
2024/02/29 13:12:46;;;;;;;;;;;19.90;51.30;;;;;;5083481;28;20054;-55
2024/02/29 13:15:24;;;;;;;;;;;20.00;51.60;;;;;;5074773;28;19932;-57
2024/02/29 13:17:52;;;;;;;;;;;20.20;51.30;;;;;;5080231;28;19928;-55
2024/02/29 13:20:20;;;;;;;;;;;20.40;51.10;;;;;;5081849;28;19928;-58
2024/02/29 13:22:48;;;;;;;;;;;20.50;51.10;;;;;;5079782;28;20684;-57
2024/02/29 13:25:18;;;;;;;;;;;20.60;50.80;;;;;;5070644;28;20438;-60
2024/02/29 13:27:46;;;;;;;;;;;20.70;50.90;;;;;;5080122;28;20026;-56
2024/02/29 13:30:14;;;;;;;;;;;20.80;50.70;;;;;;5080104;28;19931;-56
2024/02/29 13:32:42;;;;;;;;;;;20.80;50.80;;;;;;5082675;28;19932;-56
2024/02/29 13:35:10;;;;;;;;;;;20.70;50.60;;;;;;5069824;28;20271;-56
2024/02/29 13:37:40;;;;;;;;;;;20.70;50.70;;;;;;5072687;28;20050;-58
2024/02/29 13:40:09;;;;;;;;;;;20.70;50.70;;;;;;5071911;28;19936;-55
2024/02/29 13:42:39;;;;;;;;;;;20.70;50.60;;;;;;5078765;28;19970;-56
2024/02/29 13:45:11;;;;;;;;;;;20.70;50.70;;;;;;5075306;28;19972;-52
2024/02/29 13:47:46;;;;;;;;;;;20.60;50.60;;;;;;5073098;28;19928;-51
2024/02/29 13:50:15;;;;;;;;;;;20.40;50.60;;;;;;5080309;28;19989;-56
2024/02/29 13:52:43;;;;;;;;;;;20.20;50.40;;;;;;5057378;28;19928;-54
2024/02/29 13:55:11;;;;;;;;;;;20.00;50.30;;;;;;5074595;28;19923;-54
2024/02/29 13:57:41;;;;;;;;;;;19.80;50.70;;;;;;5075558;28;19928;-55
2024/02/29 14:00:09;;;;;;;;;;;19.70;50.80;;;;;;5081185;28;19928;-54
2024/02/29 14:02:41;;;;;;;;;;;19.50;50.70;;;;;;5077229;28;19931;-57
2024/02/29 14:05:09;;;;;;;;;;;19.30;50.80;;;;;;5056694;28;19928;-53
2024/02/29 14:07:37;;;;;;;;;;;19.10;50.90;;;;;;5080818;27;19996;-53
2024/02/29 14:10:07;;;;;;;;;;;18.90;51.10;;;;;;5077558;28;19934;-56
2024/02/29 14:12:35;;;;;;;;;;;18.80;51.40;;;;;;5079450;27;19932;-56
2024/02/29 14:15:05;;;;;;;;;;;18.80;51.60;;;;;;5079822;28;20379;-56
2024/02/29 14:17:34;;;;;;;;;;;18.70;51.50;;;;;;5081547;27;19927;-60
2024/02/29 14:20:02;;;;;;;;;;;18.60;51.40;;;;;;5088551;28;20026;-54
2024/02/29 14:22:31;;;;;;;;;;;18.50;51.40;;;;;;5083844;27;20081;-55
2024/02/29 14:24:59;;;;;;;;;;;18.40;51.20;;;;;;5083643;28;19927;-57